Time;durP1;ratioP1;P1;durP2;ratioP2;P2;SDS_P1;SDS_P2;PMS_P1;PMS_P2;Temp;Humidity;BMP_temperature;BMP_pressure;BME280_temperature;BME280_humidity;BME280_pressure;Samples;Min_cycle;Max_cycle;Signal;HPM_P1;HPM_P2
2023/12/02 00:01:42;;;;;;;13.07;8.43;;;8.10;74.60;;;;;;5015369;28;20139;-79
2023/12/02 00:04:08;;;;;;;14.05;8.60;;;8.10;74.70;;;;;;5017053;28;20037;-82
2023/12/02 00:06:34;;;;;;;13.75;8.07;;;8.10;74.80;;;;;;4995068;28;20061;-83
2023/12/02 00:09:00;;;;;;;12.88;7.75;;;8.10;74.90;;;;;;5027591;28;20049;-84
2023/12/02 00:11:26;;;;;;;12.80;8.07;;;8.10;75.00;;;;;;4973534;28;20025;-85
2023/12/02 00:13:52;;;;;;;12.55;7.57;;;8.10;75.00;;;;;;4998889;28;20124;-84
2023/12/02 00:16:18;;;;;;;13.57;8.07;;;8.10;75.00;;;;;;5032777;28;20030;-83
2023/12/02 00:18:44;;;;;;;14.07;8.30;;;8.10;75.00;;;;;;4995365;28;20040;-84
2023/12/02 00:21:10;;;;;;;12.05;8.30;;;8.10;75.00;;;;;;5032625;28;20038;-84
2023/12/02 00:23:36;;;;;;;12.25;7.70;;;8.10;75.10;;;;;;5031860;28;20041;-84
2023/12/02 00:26:02;;;;;;;13.63;8.32;;;8.10;75.00;;;;;;5018776;28;20026;-84
2023/12/02 00:28:28;;;;;;;11.18;7.30;;;8.10;74.90;;;;;;5016634;28;20045;-85
2023/12/02 00:30:55;;;;;;;12.80;7.97;;;8.10;74.90;;;;;;4996005;28;20029;-85
2023/12/02 00:33:21;;;;;;;13.70;8.35;;;8.10;74.90;;;;;;5016242;28;20057;-85
2023/12/02 00:35:48;;;;;;;12.18;7.72;;;8.20;74.90;;;;;;5012424;28;20069;-84
2023/12/02 00:38:14;;;;;;;12.73;8.27;;;8.10;75.60;;;;;;5013445;28;20116;-84
2023/12/02 00:40:40;;;;;;;13.30;7.72;;;8.10;74.90;;;;;;4977399;28;20134;-84
2023/12/02 00:43:06;;;;;;;11.75;7.53;;;8.10;74.90;;;;;;5011564;28;20041;-84
2023/12/02 00:45:32;;;;;;;13.32;8.05;;;8.20;75.00;;;;;;4992848;28;20048;-83
2023/12/02 00:47:58;;;;;;;12.88;7.18;;;8.10;75.00;;;;;;5010917;28;20066;-83
2023/12/02 00:50:24;;;;;;;13.00;7.80;;;8.10;75.20;;;;;;4996862;28;20034;-83
2023/12/02 00:52:50;;;;;;;12.93;7.40;;;8.20;75.20;;;;;;5012217;28;20037;-82
2023/12/02 00:55:16;;;;;;;12.40;7.53;;;8.20;75.20;;;;;;5027762;28;20454;-83
2023/12/02 00:57:42;;;;;;;11.55;7.63;;;8.20;75.30;;;;;;5032302;28;20174;-84
2023/12/02 01:00:08;;;;;;;10.90;6.97;;;8.20;75.30;;;;;;5007510;28;20053;-82
2023/12/02 01:02:34;;;;;;;19.13;8.40;;;8.20;75.40;;;;;;4992739;28;20037;-82
2023/12/02 01:05:01;;;;;;;11.23;7.45;;;8.20;75.60;;;;;;4978773;28;20040;-85
2023/12/02 01:07:27;;;;;;;12.80;8.30;;;8.20;75.60;;;;;;5011138;28;20120;-87
2023/12/02 01:09:53;;;;;;;12.35;7.78;;;8.20;75.70;;;;;;4993906;28;20635;-86
2023/12/02 01:12:19;;;;;;;12.57;7.95;;;8.20;75.60;;;;;;5043763;28;20045;-87
2023/12/02 01:14:45;;;;;;;10.38;7.45;;;8.20;75.60;;;;;;5022683;28;20046;-86
2023/12/02 01:17:11;;;;;;;11.63;7.82;;;8.20;76.20;;;;;;5002384;28;20041;-86
2023/12/02 01:19:37;;;;;;;12.90;8.52;;;8.20;75.60;;;;;;5018967;28;20784;-86
2023/12/02 01:22:03;;;;;;;14.30;8.38;;;8.20;75.60;;;;;;5036863;28;20042;-86
2023/12/02 01:24:29;;;;;;;11.07;8.00;;;8.20;75.50;;;;;;5004670;28;20034;-88
2023/12/02 01:26:55;;;;;;;11.38;7.88;;;8.20;75.70;;;;;;5016947;28;20543;-81
2023/12/02 01:29:21;;;;;;;13.25;8.10;;;8.20;75.60;;;;;;5017006;28;20033;-82
2023/12/02 01:31:47;;;;;;;11.85;7.68;;;8.20;75.60;;;;;;5017506;28;20212;-81
2023/12/02 01:34:13;;;;;;;13.73;7.90;;;8.20;75.70;;;;;;5017081;28;20033;-83
2023/12/02 01:36:39;;;;;;;12.02;8.07;;;8.20;75.70;;;;;;5012658;28;20634;-83
2023/12/02 01:39:05;;;;;;;12.93;8.27;;;8.20;75.60;;;;;;5020415;28;20068;-82
2023/12/02 01:41:31;;;;;;;11.90;7.72;;;8.30;75.70;;;;;;5034075;28;20540;-83
2023/12/02 01:43:58;;;;;;;13.73;8.18;;;8.30;75.60;;;;;;5034625;28;20044;-81
2023/12/02 01:46:24;;;;;;;13.02;7.80;;;8.20;75.60;;;;;;5022851;28;20033;-80
2023/12/02 01:48:50;;;;;;;14.75;7.93;;;8.30;75.60;;;;;;5038113;28;20125;-80
2023/12/02 01:51:17;;;;;;;14.18;8.57;;;8.20;75.60;;;;;;5035651;28;20087;-80
2023/12/02 01:53:43;;;;;;;14.48;8.98;;;8.30;75.50;;;;;;5034497;28;20132;-81
2023/12/02 01:56:10;;;;;;;12.93;8.10;;;8.30;75.60;;;;;;5035233;28;20119;-81
2023/12/02 01:58:36;;;;;;;12.38;8.02;;;8.30;75.60;;;;;;5035318;28;20158;-80
2023/12/02 02:01:04;;;;;;;11.85;7.88;;;8.30;75.50;;;;;;5027107;28;20124;-80
2023/12/02 02:03:32;;;;;;;12.98;8.60;;;8.30;75.40;;;;;;5034310;28;20034;-82
2023/12/02 02:05:58;;;;;;;15.02;8.80;;;8.30;75.40;;;;;;5053805;28;20047;-83
2023/12/02 02:08:24;;;;;;;12.30;8.20;;;8.30;75.40;;;;;;5019982;28;20029;-83
2023/12/02 02:11:00;;;;;;;13.32;8.38;;;8.30;75.40;;;;;;5018678;28;20052;-84
2023/12/02 02:13:27;;;;;;;13.60;7.80;;;8.30;75.40;;;;;;4996062;28;20037;-85
2023/12/02 02:15:54;;;;;;;13.15;8.55;;;8.30;75.60;;;;;;5000281;28;20041;-86
2023/12/02 02:18:20;;;;;;;14.25;8.60;;;8.30;75.60;;;;;;5046505;28;20033;-87
2023/12/02 02:20:51;;;;;;;13.80;8.13;;;8.30;75.70;;;;;;4999629;28;20087;-88
2023/12/02 02:23:18;;;;;;;14.68;8.50;;;8.30;75.70;;;;;;5000884;28;20473;-85
2023/12/02 02:25:45;;;;;;;14.15;8.55;;;8.30;75.70;;;;;;5015776;28;20543;-85
2023/12/02 02:28:11;;;;;;;11.85;7.88;;;8.30;75.70;;;;;;5001226;28;20124;-87
2023/12/02 02:30:37;;;;;;;13.60;8.43;;;8.30;75.70;;;;;;5000231;28;20034;-85
2023/12/02 02:33:03;;;;;;;12.20;7.88;;;8.30;75.70;;;;;;5016967;28;20037;-84
2023/12/02 02:35:32;;;;;;;12.63;8.45;;;8.30;75.60;;;;;;5016452;28;20760;-84
2023/12/02 02:37:58;;;;;;;14.82;8.68;;;8.30;75.70;;;;;;5016599;28;20045;-85
2023/12/02 02:40:24;;;;;;;13.30;8.60;;;8.30;75.70;;;;;;5003402;28;20030;-84
2023/12/02 02:42:50;;;;;;;12.70;8.27;;;8.30;75.70;;;;;;5016504;28;20084;-85
2023/12/02 02:45:16;;;;;;;13.38;8.80;;;8.30;75.60;;;;;;5012076;28;20468;-85
2023/12/02 02:47:42;;;;;;;13.88;8.60;;;8.30;75.50;;;;;;5013030;28;20056;-85
2023/12/02 02:50:08;;;;;;;13.38;8.73;;;8.30;75.60;;;;;;5021760;28;20052;-84
2023/12/02 02:52:34;;;;;;;14.90;8.60;;;8.30;75.50;;;;;;5004952;28;20037;-84
2023/12/02 02:55:00;;;;;;;13.00;8.02;;;8.30;75.50;;;;;;5018018;28;20037;-85
2023/12/02 02:57:26;;;;;;;13.35;8.98;;;8.30;75.50;;;;;;5000155;28;20074;-83
2023/12/02 02:59:52;;;;;;;13.70;8.43;;;8.30;75.50;;;;;;5003895;28;20587;-82
2023/12/02 03:02:18;;;;;;;12.48;8.27;;;8.30;75.50;;;;;;5036813;28;20029;-81
2023/12/02 03:04:44;;;;;;;13.20;8.98;;;8.30;75.50;;;;;;5006988;28;20045;-85
2023/12/02 03:07:10;;;;;;;15.07;9.43;;;8.30;75.60;;;;;;5030783;28;20427;-85
2023/12/02 03:09:36;;;;;;;12.98;8.90;;;8.30;75.50;;;;;;5019646;28;21152;-87
2023/12/02 03:12:02;;;;;;;15.43;8.20;;;8.30;75.50;;;;;;5004171;28;20052;-87
2023/12/02 03:14:28;;;;;;;16.10;9.27;;;8.30;75.50;;;;;;5004953;28;20455;-85
2023/12/02 03:16:54;;;;;;;14.38;8.77;;;8.30;75.50;;;;;;5051216;28;20029;-82
2023/12/02 03:19:20;;;;;;;12.88;8.77;;;8.40;75.60;;;;;;5038220;28;20033;-85
2023/12/02 03:21:46;;;;;;;13.43;8.38;;;8.30;75.50;;;;;;5025465;28;20029;-83
2023/12/02 03:24:12;;;;;;;13.10;8.80;;;8.30;75.50;;;;;;5023579;28;20091;-86
2023/12/02 03:26:38;;;;;;;16.13;9.55;;;8.40;75.50;;;;;;5008717;28;20635;-88
2023/12/02 03:29:05;;;;;;;11.80;8.73;;;8.30;75.40;;;;;;5017064;28;20033;-87
2023/12/02 03:31:31;;;;;;;15.48;9.63;;;8.30;75.40;;;;;;4987475;28;20038;-89
2023/12/02 03:33:56;;;;;;;14.63;9.23;;;8.30;75.40;;;;;;5014730;28;20467;-88
2023/12/02 03:36:22;;;;;;;14.30;9.32;;;8.30;75.40;;;;;;5018048;28;20033;-87
2023/12/02 03:38:48;;;;;;;13.90;9.38;;;8.30;75.50;;;;;;4988846;28;20029;-88
2023/12/02 03:41:14;;;;;;;12.90;9.27;;;8.30;75.40;;;;;;5020447;28;20025;-83
2023/12/02 03:43:40;;;;;;;15.43;10.00;;;8.30;75.40;;;;;;5019190;28;20037;-83
2023/12/02 03:46:07;;;;;;;14.95;10.00;;;8.30;75.40;;;;;;5005570;28;20132;-83
2023/12/02 03:48:33;;;;;;;14.35;9.50;;;8.30;75.40;;;;;;5003253;28;21857;-86
2023/12/02 03:50:59;;;;;;;14.18;9.20;;;8.30;75.40;;;;;;5001011;28;20073;-85
2023/12/02 03:53:25;;;;;;;14.57;9.80;;;8.30;75.40;;;;;;5005170;28;20035;-83
2023/12/02 03:55:53;;;;;;;14.95;9.80;;;8.40;75.50;;;;;;5017798;28;20040;-85
2023/12/02 03:58:20;;;;;;;15.68;10.07;;;8.30;75.40;;;;;;5014485;28;20111;-84
2023/12/02 04:00:46;;;;;;;14.48;9.68;;;8.30;75.40;;;;;;5017463;28;20046;-81
2023/12/02 04:03:12;;;;;;;15.50;10.30;;;8.30;75.40;;;;;;5023553;28;20623;-84
2023/12/02 04:05:38;;;;;;;13.77;9.40;;;8.30;75.50;;;;;;5050573;28;20119;-84
2023/12/02 04:08:05;;;;;;;15.90;10.45;;;8.30;75.40;;;;;;5036259;28;20499;-87
2023/12/02 04:10:31;;;;;;;16.38;9.52;;;8.30;75.30;;;;;;5018355;28;20028;-85
2023/12/02 04:12:57;;;;;;;14.98;9.75;;;8.30;75.30;;;;;;5017396;28;20057;-87
2023/12/02 04:15:23;;;;;;;14.93;10.10;;;8.30;75.30;;;;;;5034927;28;20072;-84
2023/12/02 04:17:49;;;;;;;16.50;10.45;;;8.30;75.30;;;;;;5019341;28;20044;-84
2023/12/02 04:20:15;;;;;;;18.52;11.20;;;8.30;75.30;;;;;;5038602;28;20061;-85
2023/12/02 04:22:42;;;;;;;17.38;10.75;;;8.40;75.30;;;;;;5034960;28;20530;-82
2023/12/02 04:25:08;;;;;;;16.63;10.15;;;8.30;75.20;;;;;;5017837;28;20038;-84
2023/12/02 04:27:34;;;;;;;16.33;10.57;;;8.30;75.20;;;;;;5011521;28;20037;-85
2023/12/02 04:30:00;;;;;;;15.45;10.65;;;8.40;75.30;;;;;;5023446;28;20035;-84
2023/12/02 04:32:27;;;;;;;16.08;10.68;;;8.40;75.30;;;;;;5023723;28;20030;-84
2023/12/02 04:34:54;;;;;;;17.60;10.60;;;8.40;75.20;;;;;;5018748;28;20086;-85
2023/12/02 04:37:23;;;;;;;17.70;10.90;;;8.30;75.20;;;;;;5004879;28;20033;-83
2023/12/02 04:39:49;;;;;;;17.98;10.70;;;8.40;75.20;;;;;;5005904;28;20033;-87
2023/12/02 04:42:15;;;;;;;18.83;11.43;;;8.40;75.20;;;;;;5034494;28;20032;-84
2023/12/02 04:44:40;;;;;;;15.63;10.55;;;8.30;75.10;;;;;;5032896;28;20503;-85
2023/12/02 04:47:06;;;;;;;17.40;10.65;;;8.30;75.00;;;;;;5019884;28;20037;-87
2023/12/02 04:49:32;;;;;;;19.58;11.57;;;8.30;75.10;;;;;;4997676;28;20960;-85
2023/12/02 04:51:58;;;;;;;16.35;11.20;;;8.30;75.10;;;;;;5004701;28;20037;-84
2023/12/02 04:54:24;;;;;;;18.38;11.65;;;8.40;75.10;;;;;;5035499;28;20033;-84
2023/12/02 04:56:50;;;;;;;18.02;11.05;;;8.40;75.20;;;;;;5034969;28;20100;-84
2023/12/02 04:59:16;;;;;;;17.65;11.05;;;8.40;75.10;;;;;;5018742;28;20049;-83
2023/12/02 05:01:43;;;;;;;18.13;10.95;;;8.40;75.10;;;;;;5035353;28;20029;-84
2023/12/02 05:04:09;;;;;;;17.77;11.30;;;8.40;75.20;;;;;;5001923;28;20061;-81
2023/12/02 05:06:35;;;;;;;17.63;11.18;;;8.30;75.00;;;;;;5033876;28;20076;-84
2023/12/02 05:09:01;;;;;;;17.50;10.93;;;8.30;75.00;;;;;;5025594;28;20044;-86
2023/12/02 05:11:27;;;;;;;18.05;11.55;;;8.30;75.00;;;;;;5010932;28;20158;-86
2023/12/02 05:13:53;;;;;;;18.55;10.82;;;8.40;74.90;;;;;;5038894;28;20063;-86
2023/12/02 05:16:19;;;;;;;17.50;11.48;;;8.40;74.90;;;;;;5021999;28;20037;-84
2023/12/02 05:18:45;;;;;;;16.95;10.95;;;8.30;74.90;;;;;;5005649;28;20508;-83
2023/12/02 05:21:12;;;;;;;17.33;11.65;;;8.30;74.90;;;;;;5002136;28;20432;-81
2023/12/02 05:23:40;;;;;;;17.02;11.00;;;8.40;74.90;;;;;;5018442;28;20033;-83
2023/12/02 05:26:06;;;;;;;16.50;11.50;;;8.30;75.00;;;;;;5001670;28;20037;-85
2023/12/02 05:28:33;;;;;;;18.00;11.50;;;8.30;75.00;;;;;;5004097;28;20145;-86
2023/12/02 05:30:59;;;;;;;17.75;11.68;;;8.30;75.00;;;;;;5019203;28;20511;-84
2023/12/02 05:33:26;;;;;;;16.95;11.27;;;8.40;75.00;;;;;;5018440;28;20065;-84
2023/12/02 05:35:52;;;;;;;16.15;10.75;;;8.40;75.10;;;;;;5018499;28;20092;-83
2023/12/02 05:38:18;;;;;;;18.40;11.43;;;8.30;75.10;;;;;;5001395;28;20044;-86
2023/12/02 05:40:44;;;;;;;18.08;11.48;;;8.30;75.00;;;;;;5021349;28;20044;-90
2023/12/02 05:43:10;;;;;;;17.70;10.93;;;8.30;75.20;;;;;;5022887;28;20462;-88
2023/12/02 05:45:36;;;;;;;17.77;11.25;;;8.40;75.50;;;;;;5007033;28;20034;-93
2023/12/02 05:48:02;;;;;;;19.77;12.07;;;8.40;75.40;;;;;;5017534;28;20045;-92
2023/12/02 05:50:28;;;;;;;21.15;12.88;;;8.40;74.80;;;;;;5003915;28;20116;-90
2023/12/02 05:52:54;;;;;;;24.35;14.48;;;8.40;74.10;;;;;;5006356;28;20067;-93
2023/12/02 05:55:21;;;;;;;22.77;13.48;;;8.40;73.50;;;;;;5002079;28;20074;-88
2023/12/02 05:57:47;;;;;;;23.65;13.70;;;8.40;73.00;;;;;;5006928;28;20050;-87
2023/12/02 06:00:16;;;;;;;24.30;14.95;;;8.40;72.90;;;;;;5034504;28;20095;-90
2023/12/02 06:02:43;;;;;;;20.90;14.05;;;8.40;72.70;;;;;;5007880;28;20045;-87
2023/12/02 06:05:09;;;;;;;23.45;14.98;;;8.40;73.20;;;;;;4977834;28;20068;-90
2023/12/02 06:07:35;;;;;;;27.50;15.50;;;8.30;72.20;;;;;;5006323;28;20065;-89
2023/12/02 06:10:01;;;;;;;25.15;15.70;;;8.30;72.20;;;;;;5015314;28;20701;-86
2023/12/02 06:12:27;;;;;;;26.35;15.48;;;8.30;72.40;;;;;;4994606;28;20037;-84
2023/12/02 06:14:53;;;;;;;26.95;15.77;;;8.30;71.60;;;;;;5019739;28;20108;-90
2023/12/02 06:17:19;;;;;;;25.63;15.95;;;8.30;71.50;;;;;;5018244;28;20430;-88
2023/12/02 06:19:45;;;;;;;26.27;15.93;;;8.30;71.40;;;;;;4989172;28;20033;-82
2023/12/02 06:22:11;;;;;;;26.20;15.63;;;8.30;71.30;;;;;;5016280;28;20041;-86
2023/12/02 06:24:37;;;;;;;25.88;15.48;;;8.30;71.40;;;;;;5039194;28;20033;-83
2023/12/02 06:27:03;;;;;;;25.60;15.55;;;8.30;71.30;;;;;;5037939;28;20542;-90
2023/12/02 06:29:29;;;;;;;23.83;15.18;;;8.20;71.20;;;;;;5004656;28;20032;-90
2023/12/02 06:31:55;;;;;;;24.10;14.98;;;8.20;71.20;;;;;;5037290;28;20044;-79
2023/12/02 06:34:21;;;;;;;25.40;15.35;;;8.20;71.20;;;;;;5005001;28;20037;-86
2023/12/02 06:36:47;;;;;;;28.33;15.40;;;8.20;71.30;;;;;;5022411;28;20121;-87
2023/12/02 06:39:14;;;;;;;23.67;15.90;;;8.20;71.20;;;;;;5021219;28;20392;-81
2023/12/02 06:41:41;;;;;;;25.45;15.90;;;8.20;71.20;;;;;;5020917;28;20029;-83
2023/12/02 06:44:10;;;;;;;26.10;15.77;;;8.20;71.10;;;;;;5027572;28;20030;-87
2023/12/02 06:46:36;;;;;;;26.63;16.30;;;8.20;71.20;;;;;;5034904;28;20090;-86
2023/12/02 06:49:02;;;;;;;27.40;17.27;;;8.20;71.20;;;;;;5007894;28;20026;-87
2023/12/02 06:51:29;;;;;;;25.45;16.55;;;8.20;71.30;;;;;;5036696;28;20030;-83
2023/12/02 06:53:58;;;;;;;24.13;14.82;;;8.20;71.40;;;;;;5036108;28;20059;-86
2023/12/02 06:56:26;;;;;;;23.52;15.00;;;8.20;71.50;;;;;;5020103;28;20057;-87
2023/12/02 06:58:53;;;;;;;25.95;15.00;;;8.20;71.70;;;;;;5035231;28;20091;-85
2023/12/02 07:01:29;;;;;;;27.65;16.27;;;8.20;71.80;;;;;;4995854;28;20029;-85
2023/12/02 07:03:57;;;;;;;22.90;15.18;;;8.20;71.80;;;;;;5026876;28;20030;-78
2023/12/02 07:06:24;;;;;;;27.40;15.63;;;8.10;71.70;;;;;;5004747;28;20034;-86
2023/12/02 07:08:51;;;;;;;24.55;15.20;;;8.20;72.00;;;;;;5004078;28;20029;-83
2023/12/02 07:11:17;;;;;;;24.38;15.05;;;8.20;72.60;;;;;;5018621;28;20030;-82
2023/12/02 07:13:44;;;;;;;26.20;15.32;;;8.20;73.00;;;;;;5018951;28;20038;-83
2023/12/02 07:16:10;;;;;;;25.15;15.38;;;8.20;73.10;;;;;;5049439;28;20041;-83
2023/12/02 07:18:37;;;;;;;28.27;15.88;;;8.20;73.00;;;;;;4993436;28;20038;-82
2023/12/02 07:21:03;;;;;;;27.23;15.90;;;8.20;73.00;;;;;;5001861;28;20044;-83
2023/12/02 07:23:29;;;;;;;26.88;15.07;;;8.20;73.00;;;;;;5035352;28;20041;-82
2023/12/02 07:25:56;;;;;;;25.88;15.40;;;8.20;73.10;;;;;;4995854;28;20026;-82
2023/12/02 07:28:22;;;;;;;28.05;15.52;;;8.20;73.00;;;;;;4999746;28;20085;-81
2023/12/02 07:30:49;;;;;;;25.90;15.88;;;8.20;73.00;;;;;;4998778;28;20092;-83
2023/12/02 07:33:15;;;;;;;26.85;16.42;;;8.20;72.90;;;;;;5026852;28;20042;-84
2023/12/02 07:35:42;;;;;;;27.00;15.95;;;8.20;72.90;;;;;;5005312;28;20110;-82
2023/12/02 07:38:10;;;;;;;28.73;15.60;;;8.20;72.80;;;;;;4988449;28;20060;-80
2023/12/02 07:40:36;;;;;;;26.98;15.38;;;8.30;72.70;;;;;;5015930;28;20030;-82
2023/12/02 07:43:02;;;;;;;26.15;15.75;;;8.30;72.60;;;;;;5029177;28;20034;-81
2023/12/02 07:45:29;;;;;;;26.00;15.98;;;8.20;72.90;;;;;;5035973;28;20400;-81
2023/12/02 07:47:55;;;;;;;28.23;15.82;;;8.30;73.20;;;;;;5033286;28;20554;-83
2023/12/02 07:50:22;;;;;;;23.75;15.40;;;8.30;72.90;;;;;;5016696;28;20033;-80
2023/12/02 07:52:48;;;;;;;29.30;15.85;;;8.30;73.00;;;;;;5034065;28;20488;-83
2023/12/02 07:55:14;;;;;;;31.35;16.20;;;8.30;72.90;;;;;;5021369;28;20046;-80
2023/12/02 07:57:40;;;;;;;24.55;15.70;;;8.30;72.80;;;;;;5025133;28;20480;-79
2023/12/02 08:00:07;;;;;;;30.25;16.75;;;8.30;72.60;;;;;;5036678;28;20032;-80
2023/12/02 08:02:39;;;;;;;26.48;16.30;;;8.30;72.40;;;;;;5034513;28;20033;-78
2023/12/02 08:05:06;;;;;;;27.27;15.63;;;8.30;72.60;;;;;;5037052;28;20037;-80
2023/12/02 08:07:31;;;;;;;23.25;13.75;;;8.40;73.90;;;;;;5032669;28;20132;-79
2023/12/02 08:09:57;;;;;;;24.95;15.55;;;8.30;74.30;;;;;;5033780;28;20124;-83
2023/12/02 08:12:24;;;;;;;26.80;15.10;;;8.40;74.70;;;;;;5025873;28;20080;-81
2023/12/02 08:14:50;;;;;;;30.38;16.83;;;8.40;74.40;;;;;;4987249;28;20057;-95
2023/12/02 08:17:17;;;;;;;23.33;15.80;;;8.30;73.60;;;;;;5015592;28;20061;-88
2023/12/02 08:19:43;;;;;;;26.02;16.02;;;8.40;73.20;;;;;;5001005;28;20072;-86
2023/12/02 08:22:09;;;;;;;25.35;15.90;;;8.40;72.90;;;;;;4983035;28;20666;-91
2023/12/02 08:24:42;;;;;;;25.42;15.57;;;8.40;72.60;;;;;;5006125;28;20048;-83
2023/12/02 08:27:11;;;;;;;29.15;17.23;;;8.40;72.40;;;;;;5033219;28;20034;-80
2023/12/02 08:29:37;;;;;;;27.83;15.90;;;8.40;72.20;;;;;;5016938;28;20021;-80
2023/12/02 08:32:04;;;;;;;25.77;15.80;;;8.40;71.90;;;;;;5033921;28;20037;-77
2023/12/02 08:34:30;;;;;;;26.98;15.90;;;8.40;71.80;;;;;;5030205;28;20043;-78
2023/12/02 08:36:56;;;;;;;26.58;16.88;;;8.40;71.80;;;;;;5034385;28;20033;-77
2023/12/02 08:39:22;;;;;;;31.45;16.45;;;8.40;71.60;;;;;;5034855;28;20029;-78
2023/12/02 08:41:48;;;;;;;25.55;15.68;;;8.40;71.60;;;;;;5034886;28;20066;-80
2023/12/02 08:44:14;;;;;;;24.15;14.82;;;8.40;72.10;;;;;;5037579;28;21508;-83
2023/12/02 08:46:40;;;;;;;25.40;15.38;;;8.40;71.40;;;;;;5038229;28;20067;-83
2023/12/02 08:49:06;;;;;;;26.10;16.33;;;8.40;70.80;;;;;;5029389;28;20064;-83
2023/12/02 08:51:32;;;;;;;28.50;16.90;;;8.40;70.00;;;;;;5018089;28;20048;-83
2023/12/02 08:54:02;;;;;;;24.67;16.75;;;8.50;68.90;;;;;;5038319;28;20045;-83
2023/12/02 08:56:28;;;;;;;29.55;16.83;;;8.40;68.20;;;;;;5036908;28;20029;-82
2023/12/02 08:58:55;;;;;;;29.02;16.27;;;8.40;67.60;;;;;;5006909;28;20054;-82
2023/12/02 09:01:22;;;;;;;26.60;15.43;;;8.40;67.10;;;;;;5038494;28;20475;-84
2023/12/02 09:03:48;;;;;;;26.70;16.42;;;8.40;66.90;;;;;;5012248;28;20032;-84
2023/12/02 09:06:14;;;;;;;26.33;16.20;;;8.40;66.70;;;;;;5021207;28;20045;-85
2023/12/02 09:08:40;;;;;;;29.45;16.98;;;8.40;66.30;;;;;;5003315;28;20037;-85
2023/12/02 09:11:06;;;;;;;26.65;16.27;;;8.40;66.10;;;;;;5018672;28;20030;-84
2023/12/02 09:13:48;;;;;;;28.13;16.95;;;8.40;65.60;;;;;;5036397;28;20048;-82
2023/12/02 09:16:21;;;;;;;26.13;15.88;;;8.40;66.00;;;;;;5017888;28;20106;-81
2023/12/02 09:18:48;;;;;;;28.48;15.82;;;8.40;65.70;;;;;;5016197;28;20064;-85
2023/12/02 09:21:20;;;;;;;24.08;15.32;;;8.40;65.20;;;;;;5013820;28;20039;-82
2023/12/02 09:23:50;;;;;;;26.45;16.20;;;8.40;65.00;;;;;;5015272;28;20108;-83
2023/12/02 09:26:43;;;;;;;27.55;16.52;;;8.40;64.90;;;;;;5014724;28;20026;-88
2023/12/02 09:29:10;;;;;;;27.30;15.50;;;8.40;65.00;;;;;;4995353;28;20509;-82
2023/12/02 09:31:36;;;;;;;27.38;15.48;;;8.40;65.00;;;;;;5010716;28;20041;-84
2023/12/02 09:34:03;;;;;;;24.50;15.38;;;8.40;64.70;;;;;;5001303;28;20180;-83
2023/12/02 09:36:41;;;;;;;23.88;14.13;;;8.40;65.10;;;;;;5013032;28;20037;-81
2023/12/02 09:39:10;;;;;;;25.73;13.88;;;8.40;64.90;;;;;;4988661;28;20034;-83
2023/12/02 09:41:49;;;;;;;20.65;13.50;;;8.40;64.80;;;;;;5012817;28;20038;-83
2023/12/02 09:44:23;;;;;;;21.30;13.40;;;8.40;64.90;;;;;;5012393;28;20511;-84
2023/12/02 09:46:58;;;;;;;23.50;14.25;;;8.30;64.70;;;;;;5012810;28;20501;-84
2023/12/02 09:49:57;;;;;;;21.80;12.57;;;8.30;64.80;;;;;;5044217;28;20123;-83
2023/12/02 09:53:01;;;;;;;18.45;11.88;;;8.40;64.80;;;;;;5025876;28;20034;-82
2023/12/02 09:55:38;;;;;;;19.42;11.90;;;8.30;64.60;;;;;;5034237;28;20048;-83
2023/12/02 09:58:24;;;;;;;16.63;11.20;;;8.30;64.50;;;;;;5022098;28;20053;-83
2023/12/02 10:00:56;;;;;;;18.33;11.27;;;8.30;64.00;;;;;;5029930;28;20602;-84
2023/12/02 10:03:47;;;;;;;17.13;11.00;;;8.30;64.40;;;;;;5038128;28;20033;-86
2023/12/02 10:06:22;;;;;;;19.05;11.68;;;8.30;64.20;;;;;;5019045;28;20102;-83
2023/12/02 10:09:12;;;;;;;16.08;10.82;;;8.30;63.80;;;;;;5038688;28;20030;-83
2023/12/02 10:11:53;;;;;;;17.05;10.35;;;8.30;63.70;;;;;;5034702;28;20488;-84
2023/12/02 10:14:23;;;;;;;17.48;11.68;;;8.30;63.50;;;;;;5009833;28;20333;-84
2023/12/02 10:16:53;;;;;;;20.00;11.10;;;8.20;63.60;;;;;;5019293;28;20048;-84
2023/12/02 10:19:44;;;;;;;18.27;10.98;;;8.30;63.70;;;;;;5021678;28;20030;-83
2023/12/02 10:22:11;;;;;;;19.25;11.20;;;8.30;63.90;;;;;;5005429;28;20045;-86
2023/12/02 10:24:59;;;;;;;16.55;10.90;;;8.20;63.70;;;;;;5004220;28;20037;-84
2023/12/02 10:27:28;;;;;;;15.85;10.93;;;8.20;63.90;;;;;;5037093;28;20645;-80
2023/12/02 10:30:10;;;;;;;17.83;10.55;;;8.20;63.90;;;;;;5020761;28;20424;-79
2023/12/02 10:33:00;;;;;;;17.90;10.25;;;8.30;66.70;;;;;;5049491;28;20058;-79
2023/12/02 10:35:34;;;;;;;17.55;10.10;;;8.40;69.00;;;;;;5016959;28;20045;-79
2023/12/02 10:38:26;;;;;;;15.75;9.68;;;8.40;69.80;;;;;;5036474;28;20095;-79
2023/12/02 10:41:44;;;;;;;17.63;10.80;;;8.50;70.00;;;;;;5036162;28;20033;-79
2023/12/02 10:44:14;;;;;;;17.92;11.05;;;8.60;69.80;;;;;;4961418;28;20670;-82
2023/12/02 10:46:43;;;;;;;16.92;10.75;;;8.70;69.70;;;;;;4960013;28;20172;-81
2023/12/02 10:49:12;;;;;;;17.27;10.90;;;8.70;69.30;;;;;;4949146;28;20479;-80
2023/12/02 10:51:41;;;;;;;17.90;11.80;;;8.80;69.00;;;;;;4959204;28;20035;-84
2023/12/02 10:54:09;;;;;;;18.90;10.68;;;8.90;69.00;;;;;;4945813;28;20118;-80
2023/12/02 10:56:39;;;;;;;14.60;9.55;;;8.90;69.60;;;;;;4946536;28;20058;-82
2023/12/02 10:59:05;;;;;;;18.60;11.02;;;9.00;69.70;;;;;;4944460;28;20137;-82
2023/12/02 11:01:38;;;;;;;19.70;11.90;;;9.00;68.80;;;;;;4959951;28;20031;-82
2023/12/02 11:04:20;;;;;;;21.10;12.07;;;9.00;67.90;;;;;;4960084;28;20039;-81
2023/12/02 11:06:57;;;;;;;18.05;12.15;;;9.00;67.00;;;;;;4943605;28;20045;-81
2023/12/02 11:09:47;;;;;;;21.35;12.85;;;8.90;66.10;;;;;;4927203;28;20046;-82
2023/12/02 11:12:33;;;;;;;19.40;12.48;;;8.90;65.40;;;;;;4925786;28;20049;-82
2023/12/02 11:15:09;;;;;;;20.55;12.43;;;8.90;65.00;;;;;;4943630;28;20038;-81
2023/12/02 11:17:42;;;;;;;19.90;11.93;;;8.90;64.90;;;;;;4944512;28;20110;-82
2023/12/02 11:20:14;;;;;;;21.55;12.52;;;8.80;64.50;;;;;;4968326;28;20180;-82
2023/12/02 11:22:59;;;;;;;21.38;11.55;;;8.90;64.10;;;;;;5032899;28;20629;-82
2023/12/02 11:26:02;;;;;;;18.85;11.80;;;8.80;64.00;;;;;;5031113;28;20041;-82
2023/12/02 11:28:49;;;;;;;20.52;11.70;;;8.80;64.00;;;;;;5035816;28;20029;-83
2023/12/02 11:31:51;;;;;;;19.30;11.52;;;8.80;63.60;;;;;;5032611;28;20612;-83
2023/12/02 11:34:32;;;;;;;17.42;10.85;;;8.70;63.30;;;;;;4973263;28;20502;-83
2023/12/02 11:37:35;;;;;;;18.50;11.65;;;8.70;63.50;;;;;;4958917;28;20564;-82
2023/12/02 11:40:26;;;;;;;20.05;12.20;;;8.70;63.30;;;;;;4963041;28;20149;-81
2023/12/02 11:43:21;;;;;;;17.70;10.88;;;8.70;63.20;;;;;;4944671;28;20030;-82
2023/12/02 11:45:56;;;;;;;20.20;11.85;;;8.60;63.30;;;;;;4883275;29;20045;-81
2023/12/02 11:48:44;;;;;;;18.50;12.05;;;8.70;63.20;;;;;;4901785;29;20071;-81
2023/12/02 11:51:25;;;;;;;20.20;11.40;;;8.60;63.20;;;;;;4894685;29;20059;-84
2023/12/02 11:54:04;;;;;;;23.27;11.88;;;8.60;63.30;;;;;;4901645;29;20046;-79
2023/12/02 11:56:31;;;;;;;19.45;12.15;;;8.50;63.30;;;;;;4898474;29;20075;-84
2023/12/02 11:59:18;;;;;;;20.27;11.25;;;8.50;63.50;;;;;;4863363;29;20068;-81
2023/12/02 12:01:44;;;;;;;20.67;12.57;;;8.50;63.70;;;;;;4886728;29;20091;-84
2023/12/02 12:04:24;;;;;;;17.02;11.05;;;8.50;63.90;;;;;;4903171;29;20552;-85
2023/12/02 12:06:56;;;;;;;17.83;11.13;;;8.40;64.10;;;;;;4897731;29;20128;-83
2023/12/02 12:09:59;;;;;;;18.40;11.32;;;8.40;64.00;;;;;;4896975;29;20123;-84
2023/12/02 12:12:28;;;;;;;16.52;11.18;;;8.40;63.90;;;;;;4973893;28;20129;-85
2023/12/02 12:14:55;;;;;;;17.88;10.93;;;8.40;63.90;;;;;;4973204;28;20053;-83
2023/12/02 12:17:22;;;;;;;16.88;10.77;;;8.40;64.00;;;;;;4948871;28;20080;-81
2023/12/02 12:19:51;;;;;;;17.75;10.45;;;8.30;64.20;;;;;;4940461;28;20457;-81
2023/12/02 12:22:17;;;;;;;17.63;10.95;;;8.30;64.20;;;;;;4959578;28;20033;-81
2023/12/02 12:24:43;;;;;;;17.35;10.40;;;8.30;64.30;;;;;;5027462;28;20038;-80
2023/12/02 12:27:10;;;;;;;17.88;10.60;;;8.30;64.50;;;;;;5005479;28;20049;-82
2023/12/02 12:29:58;;;;;;;15.88;10.32;;;8.30;64.40;;;;;;5033538;28;20041;-81
2023/12/02 12:32:25;;;;;;;16.55;9.98;;;8.30;64.60;;;;;;5036192;28;20116;-80
2023/12/02 12:34:54;;;;;;;14.57;9.45;;;8.20;64.40;;;;;;5033696;28;20039;-83
2023/12/02 12:37:20;;;;;;;14.35;9.05;;;8.20;64.50;;;;;;5043871;28;20033;-87
2023/12/02 12:39:47;;;;;;;13.95;8.93;;;8.20;64.50;;;;;;5017838;28;20034;-86
2023/12/02 12:42:16;;;;;;;14.98;9.38;;;8.20;64.50;;;;;;5000995;28;20118;-86
2023/12/02 12:44:44;;;;;;;15.82;9.13;;;8.20;64.60;;;;;;5015371;28;20032;-86
2023/12/02 12:47:11;;;;;;;14.75;9.02;;;8.20;64.50;;;;;;4988307;28;20038;-86
2023/12/02 12:49:41;;;;;;;12.35;8.57;;;8.10;64.50;;;;;;5002797;28;20037;-86
2023/12/02 12:52:09;;;;;;;15.30;9.55;;;8.10;64.80;;;;;;4994435;28;20049;-85